createdAt,value
2023-03-21T00:02:43.186Z,33.09
2023-03-21T00:05:52.206Z,31.87
2023-03-21T00:08:59.169Z,31.85
2023-03-21T00:12:07.572Z,30.81
2023-03-21T00:15:20.590Z,29.11
2023-03-21T00:18:31.844Z,28.50
2023-03-21T00:21:49.135Z,28.22
2023-03-21T00:25:01.765Z,28.34
2023-03-21T00:28:08.936Z,27.98
2023-03-21T00:31:22.427Z,28.24
2023-03-21T00:34:43.107Z,27.87
2023-03-21T00:37:49.793Z,28.22
2023-03-21T00:41:01.928Z,29.42
2023-03-21T00:44:11.738Z,29.95
2023-03-21T00:47:20.724Z,30.74
2023-03-21T00:50:32.578Z,29.49
2023-03-21T00:53:39.353Z,28.67
2023-03-21T00:56:45.210Z,29.25
2023-03-21T00:59:52.036Z,29.24
2023-03-21T01:03:17.896Z,29.18
2023-03-21T01:06:33.469Z,29.03
2023-03-21T01:09:39.443Z,28.50
2023-03-21T01:12:46.609Z,29.18
2023-03-21T01:15:55.895Z,26.94
2023-03-21T01:19:05.223Z,27.00
2023-03-21T01:22:16.375Z,26.96
2023-03-21T01:25:23.610Z,25.87
2023-03-21T01:28:32.223Z,26.11
2023-03-21T01:31:56.069Z,25.95
2023-03-21T01:35:03.291Z,26.96
2023-03-21T01:38:20.731Z,26.95
2023-03-21T01:41:47.744Z,26.65
2023-03-21T01:46:00.695Z,26.83
2023-03-21T01:49:34.532Z,27.50
2023-03-21T01:52:50.280Z,26.77
2023-03-21T01:56:17.119Z,26.54
2023-03-21T02:00:06.582Z,27.77
2023-03-21T02:03:35.353Z,29.00
2023-03-21T02:07:09.096Z,29.00
2023-03-21T02:10:36.741Z,28.84
2023-03-21T02:13:48.741Z,31.47
2023-03-21T02:17:18.065Z,31.35
2023-03-21T02:21:27.087Z,30.10
2023-03-21T02:25:36.742Z,29.96
2023-03-21T02:33:09.980Z,29.67
2023-03-21T02:36:59.507Z,29.80
2023-03-21T02:40:28.261Z,29.63
2023-03-21T02:43:48.612Z,29.56
2023-03-21T02:47:06.468Z,31.40
2023-03-21T02:50:31.093Z,33.70
2023-03-21T02:53:53.338Z,32.54
2023-03-21T02:57:10.658Z,31.24
2023-03-21T03:00:25.061Z,30.59
2023-03-21T03:03:57.113Z,31.36
2023-03-21T03:16:26.034Z,27.64
2023-03-21T03:19:50.665Z,27.57
2023-03-21T03:23:13.916Z,27.38
2023-03-21T03:26:29.968Z,27.47
2023-03-21T03:29:45.567Z,26.12
2023-03-21T03:33:06.685Z,26.35
2023-03-21T03:36:31.582Z,25.30
2023-03-21T03:39:54.710Z,24.80
2023-03-21T03:43:11.475Z,24.90
2023-03-21T03:46:28.455Z,23.72
2023-03-21T03:49:51.561Z,25.17
2023-03-21T03:53:16.383Z,24.73
2023-03-21T03:56:31.949Z,25.86
2023-03-21T03:59:40.774Z,27.19
2023-03-21T04:03:07.484Z,28.90
2023-03-21T04:06:16.580Z,31.85
2023-03-21T04:09:34.020Z,32.97
2023-03-21T04:12:43.403Z,35.56
2023-03-21T04:16:00.378Z,35.94
2023-03-21T04:19:06.792Z,37.58
2023-03-21T04:22:17.279Z,38.79
2023-03-21T04:25:34.000Z,39.66
2023-03-21T04:28:43.201Z,37.50
2023-03-21T04:32:02.109Z,37.97
2023-03-21T04:35:12.371Z,39.99
2023-03-21T04:38:21.140Z,40.59
2023-03-21T04:41:28.336Z,40.87
2023-03-21T04:44:34.692Z,41.20
2023-03-21T04:47:42.783Z,40.25
2023-03-21T04:50:49.721Z,40.95
2023-03-21T04:54:01.307Z,40.30
2023-03-21T04:57:08.176Z,40.86
2023-03-21T05:00:17.661Z,41.08
2023-03-21T05:03:23.882Z,44.20
2023-03-21T05:06:33.101Z,47.31
2023-03-21T05:09:44.684Z,48.12
2023-03-21T05:20:36.532Z,54.16
2023-03-21T05:25:05.319Z,37.81
2023-03-21T05:28:56.830Z,34.16
2023-03-21T05:32:05.957Z,30.19
2023-03-21T05:35:20.393Z,30.11
2023-03-21T05:38:33.745Z,36.60
2023-03-21T05:41:43.540Z,42.53
2023-03-21T05:45:05.634Z,43.92
2023-03-21T05:48:14.031Z,43.75
2023-03-21T05:51:39.632Z,39.52
2023-03-21T05:54:50.244Z,41.71
2023-03-21T05:58:04.286Z,42.70
2023-03-21T06:01:17.545Z,44.09
2023-03-21T06:04:32.245Z,48.99
2023-03-21T06:07:38.852Z,50.03
2023-03-21T06:10:49.769Z,56.81
2023-03-21T06:14:05.438Z,50.50
2023-03-21T06:17:16.938Z,47.12
2023-03-21T06:20:30.588Z,44.52
2023-03-21T06:23:45.273Z,43.37
2023-03-21T06:26:51.741Z,43.45
2023-03-21T06:30:01.823Z,44.74
2023-03-21T06:33:22.024Z,42.38
2023-03-21T06:36:29.136Z,32.91
2023-03-21T06:39:36.037Z,28.98
2023-03-21T06:42:42.991Z,26.48
2023-03-21T06:45:50.457Z,25.35
2023-03-21T06:48:59.995Z,27.84
2023-03-21T06:52:08.748Z,28.00
2023-03-21T06:55:15.577Z,26.99
2023-03-21T06:58:22.363Z,26.17
2023-03-21T07:01:30.732Z,25.32
2023-03-21T07:04:45.935Z,27.19
2023-03-21T07:07:57.746Z,23.04
2023-03-21T07:11:07.316Z,23.52
2023-03-21T07:14:17.605Z,21.69
2023-03-21T07:17:23.444Z,23.33
2023-03-21T07:20:33.974Z,24.53
2023-03-21T07:23:42.220Z,25.10
2023-03-21T07:26:49.322Z,26.22
2023-03-21T07:29:55.042Z,27.30
2023-03-21T07:33:01.695Z,29.92
2023-03-21T07:36:15.660Z,31.62
2023-03-21T07:39:23.734Z,34.67
2023-03-21T07:42:33.802Z,32.61
2023-03-21T07:45:41.106Z,33.61
2023-03-21T07:48:47.181Z,34.72
2023-03-21T07:51:56.341Z,34.56
2023-03-21T07:55:02.142Z,36.08
2023-03-21T07:58:13.146Z,37.42
2023-03-21T08:01:19.045Z,35.34
2023-03-21T08:04:26.153Z,36.26
2023-03-21T08:07:37.887Z,36.73
2023-03-21T08:10:47.004Z,37.54
2023-03-21T08:13:54.092Z,36.35
2023-03-21T08:17:01.004Z,34.64
2023-03-21T08:20:12.183Z,33.49
2023-03-21T08:23:22.581Z,31.52
2023-03-21T08:26:28.678Z,32.21
2023-03-21T08:29:40.535Z,31.19
2023-03-21T08:32:50.328Z,32.36
2023-03-21T08:36:02.352Z,31.37
2023-03-21T08:39:11.942Z,31.15
2023-03-21T08:42:18.590Z,30.56
2023-03-21T08:45:25.781Z,31.39
2023-03-21T08:48:33.087Z,31.56
2023-03-21T08:51:41.520Z,30.89
2023-03-21T08:54:51.022Z,30.76
2023-03-21T08:57:58.305Z,31.43
2023-03-21T09:01:05.371Z,31.00
2023-03-21T09:04:11.449Z,31.15
2023-03-21T09:07:18.242Z,35.10
2023-03-21T09:10:27.370Z,34.98
2023-03-21T09:13:34.204Z,33.38
2023-03-21T09:16:40.061Z,32.31
2023-03-21T09:19:47.336Z,32.58
2023-03-21T09:22:55.071Z,33.22
2023-03-21T09:26:04.500Z,34.97
2023-03-21T09:29:10.291Z,34.37
2023-03-21T09:32:17.679Z,35.08
2023-03-21T09:35:24.908Z,35.50
2023-03-21T09:38:37.731Z,34.42
2023-03-21T09:42:08.450Z,34.39
2023-03-21T09:45:27.328Z,37.63
2023-03-21T09:48:57.139Z,31.17
2023-03-21T09:52:16.366Z,32.43
2023-03-21T09:55:31.154Z,31.07
2023-03-21T09:58:53.062Z,30.47
2023-03-21T10:02:03.422Z,32.02
2023-03-21T10:05:22.824Z,32.13
2023-03-21T10:08:36.763Z,33.93
2023-03-21T10:11:50.607Z,33.54
2023-03-21T10:15:05.522Z,33.71
2023-03-21T10:18:24.418Z,36.24
2023-03-21T10:21:58.676Z,35.86
2023-03-21T10:24:59.497Z,35.05
2023-03-21T10:28:10.461Z,34.81
2023-03-21T10:31:27.231Z,34.64
2023-03-21T10:34:41.059Z,36.76
2023-03-21T10:37:50.396Z,37.58
2023-03-21T10:40:57.404Z,38.36
2023-03-21T10:44:14.983Z,38.42
2023-03-21T10:47:29.841Z,37.75
2023-03-21T10:50:38.789Z,39.23
2023-03-21T10:53:54.678Z,38.68
2023-03-21T10:57:08.843Z,36.79
2023-03-21T11:00:25.882Z,33.13
2023-03-21T11:03:44.797Z,32.13
2023-03-21T11:06:58.213Z,37.76
2023-03-21T11:10:23.035Z,34.67
2023-03-21T11:13:41.581Z,36.38
2023-03-21T11:16:48.331Z,38.79
2023-03-21T11:20:00.877Z,34.23
2023-03-21T11:23:09.627Z,31.98
2023-03-21T11:26:26.341Z,31.08
2023-03-21T11:29:39.021Z,31.72
2023-03-21T11:32:46.473Z,32.13
2023-03-21T11:36:08.292Z,34.11
2023-03-21T11:39:34.154Z,34.78
2023-03-21T11:42:49.797Z,57.89
2023-03-21T11:46:01.775Z,92.63
2023-03-21T11:49:08.618Z,86.03
2023-03-21T11:52:34.992Z,39.90
2023-03-21T11:56:01.588Z,36.34
2023-03-21T11:59:44.161Z,32.57
2023-03-21T12:03:17.737Z,34.35
2023-03-21T12:06:36.197Z,41.06
2023-03-21T12:09:58.600Z,37.19
2023-03-21T12:13:29.508Z,34.52
2023-03-21T12:16:57.154Z,34.75
2023-03-21T12:20:36.576Z,35.34
2023-03-21T12:24:05.084Z,35.29
2023-03-21T12:27:37.279Z,33.28
2023-03-21T12:30:57.758Z,36.05
2023-03-21T12:34:25.171Z,34.11
2023-03-21T12:37:46.396Z,34.24
2023-03-21T12:41:14.533Z,31.51
2023-03-21T12:44:29.731Z,35.49
2023-03-21T12:47:39.326Z,34.27
2023-03-21T12:50:51.311Z,34.89
2023-03-21T12:54:12.503Z,39.83
2023-03-21T12:57:26.303Z,35.06
2023-03-21T13:00:44.744Z,34.94
2023-03-21T13:04:10.882Z,36.47
2023-03-21T13:07:26.641Z,35.62
2023-03-21T13:10:36.489Z,38.87
2023-03-21T13:13:52.730Z,35.17
2023-03-21T13:17:13.838Z,31.97
2023-03-21T13:20:33.522Z,31.07
2023-03-21T13:23:42.563Z,28.83
2023-03-21T13:26:55.845Z,29.16
2023-03-21T13:30:06.755Z,29.67
2023-03-21T13:33:24.239Z,29.04
2023-03-21T13:36:34.711Z,30.61
2023-03-21T13:39:49.954Z,28.32
2023-03-21T13:43:03.829Z,27.30
2023-03-21T13:46:13.458Z,26.11
2023-03-21T13:49:36.311Z,25.41
2023-03-21T13:52:42.140Z,28.40
2023-03-21T13:56:01.059Z,27.58
2023-03-21T13:59:12.827Z,21.48
2023-03-21T14:02:33.758Z,19.43
2023-03-21T14:05:43.314Z,22.25
2023-03-21T14:08:52.818Z,23.96
2023-03-21T14:12:07.420Z,23.77
2023-03-21T14:15:24.467Z,24.56
2023-03-21T14:22:03.642Z,23.98
2023-03-21T14:25:16.784Z,107.83
2023-03-21T14:28:28.200Z,216.73
2023-03-21T14:31:35.705Z,28.44
2023-03-21T14:34:43.482Z,26.13
2023-03-21T14:37:52.227Z,28.39
2023-03-21T14:41:00.143Z,46.84
2023-03-21T14:44:25.911Z,25.51
2023-03-21T14:47:36.803Z,36.86
2023-03-21T14:50:51.058Z,35.87
2023-03-21T14:54:01.274Z,32.15
2023-03-21T14:57:16.431Z,36.89
2023-03-21T15:00:29.504Z,81.77
2023-03-21T15:03:38.076Z,106.13
2023-03-21T15:07:02.057Z,35.28
2023-03-21T15:10:19.405Z,30.22
2023-03-21T15:13:33.237Z,34.64
2023-03-21T15:16:41.443Z,35.39
2023-03-21T15:19:48.413Z,53.80
2023-03-21T15:23:00.727Z,34.10
2023-03-21T15:26:10.969Z,57.68
2023-03-21T15:29:19.727Z,87.81
2023-03-21T15:32:31.251Z,140.41
2023-03-21T15:35:43.844Z,50.45
2023-03-21T15:38:51.802Z,57.14
2023-03-21T15:42:08.028Z,69.44
2023-03-21T15:45:25.755Z,66.47
2023-03-21T15:48:36.958Z,74.06
2023-03-21T15:51:49.150Z,42.54
2023-03-21T15:54:59.443Z,38.52
2023-03-21T15:58:19.158Z,35.85
2023-03-21T16:01:29.111Z,30.59
2023-03-21T16:04:35.900Z,29.91
2023-03-21T16:07:50.237Z,40.14
2023-03-21T16:11:11.640Z,45.01
2023-03-21T16:14:20.898Z,58.10
2023-03-21T16:17:37.845Z,68.36
2023-03-21T16:20:49.269Z,45.71
2023-03-21T16:23:56.282Z,38.21
2023-03-21T16:27:03.256Z,31.07
2023-03-21T16:30:18.272Z,35.05
2023-03-21T16:33:25.528Z,34.05
2023-03-21T16:36:36.639Z,34.38
2023-03-21T16:39:42.650Z,41.80
2023-03-21T16:42:49.256Z,42.95
2023-03-21T16:45:57.784Z,28.63
2023-03-21T16:49:04.505Z,30.36
2023-03-21T16:52:16.797Z,33.92
2023-03-21T16:55:23.997Z,38.06
2023-03-21T16:58:29.872Z,32.48
2023-03-21T17:01:41.541Z,34.80
2023-03-21T17:04:49.708Z,35.02
2023-03-21T17:07:57.114Z,55.16
2023-03-21T17:11:06.443Z,103.94
2023-03-21T17:14:17.000Z,90.77
2023-03-21T17:17:25.390Z,108.49
2023-03-21T17:20:40.416Z,153.55
2023-03-21T17:23:47.786Z,142.66
2023-03-21T17:26:56.095Z,118.04
2023-03-21T17:30:02.433Z,96.89
2023-03-21T17:33:12.314Z,76.64
2023-03-21T17:36:22.874Z,73.77
2023-03-21T17:39:32.306Z,80.75
2023-03-21T17:42:38.482Z,89.94
2023-03-21T17:45:48.404Z,91.19
2023-03-21T17:48:59.114Z,88.37
2023-03-21T17:52:11.628Z,84.66
2023-03-21T17:55:21.438Z,74.21
2023-03-21T17:58:31.967Z,66.24
2023-03-21T18:01:38.236Z,91.28
2023-03-21T18:04:47.620Z,89.42
2023-03-21T18:08:09.419Z,59.82
2023-03-21T18:11:23.009Z,65.25
2023-03-21T18:14:30.291Z,64.10
2023-03-21T18:17:40.413Z,70.72
2023-03-21T18:20:54.045Z,66.35
2023-03-21T18:24:01.562Z,66.48
2023-03-21T18:27:08.806Z,58.69
2023-03-21T18:30:44.335Z,60.19
2023-03-21T18:33:51.406Z,63.28
2023-03-21T18:37:03.851Z,57.31
2023-03-21T18:40:13.988Z,55.30
2023-03-21T18:46:50.722Z,53.33
2023-03-21T18:50:13.333Z,52.46
2023-03-21T18:53:24.749Z,52.71
2023-03-21T18:57:31.752Z,52.47
2023-03-21T18:59:59.080Z,53.49
2023-03-21T19:03:22.172Z,56.66
2023-03-21T23:01:07.190Z,88.60
2023-03-21T23:04:14.469Z,84.22
2023-03-21T23:07:21.006Z,86.72
2023-03-21T23:10:28.296Z,86.61
2023-03-21T23:13:34.626Z,85.84
2023-03-21T23:16:45.419Z,92.36
2023-03-21T23:19:52.997Z,93.17
2023-03-21T23:23:00.661Z,94.58
2023-03-21T23:26:07.151Z,100.56
2023-03-21T23:29:15.367Z,86.39
2023-03-21T23:32:24.813Z,89.22
2023-03-21T23:35:35.582Z,85.96
2023-03-21T23:38:44.529Z,78.42
